sensor_id;sensor_type;location;lat;lon;timestamp;pressure;altitude;pressure_sealevel;temperature;humidity
29879;BME280;16752;53.364;-1.488;2023-11-19T00:02:13;98919.34;;;17.51;48.43
29879;BME280;16752;53.364;-1.488;2023-11-19T00:04:57;98936.50;;;16.41;50.52
29879;BME280;16752;53.364;-1.488;2023-11-19T00:07:42;98884.38;;;17.41;47.54
29879;BME280;16752;53.364;-1.488;2023-11-19T00:10:26;98923.88;;;17.28;48.04
29879;BME280;16752;53.364;-1.488;2023-11-19T00:13:09;98938.38;;;16.94;48.60
29879;BME280;16752;53.364;-1.488;2023-11-19T00:15:54;98947.00;;;17.11;48.60
29879;BME280;16752;53.364;-1.488;2023-11-19T00:18:38;98939.94;;;16.80;48.93
29879;BME280;16752;53.364;-1.488;2023-11-19T00:21:22;98946.59;;;17.22;47.93
29879;BME280;16752;53.364;-1.488;2023-11-19T00:24:06;98952.28;;;17.71;46.84
29879;BME280;16752;53.364;-1.488;2023-11-19T00:26:50;98956.06;;;17.54;47.09
29879;BME280;16752;53.364;-1.488;2023-11-19T00:29:34;98950.69;;;17.85;46.42
29879;BME280;16752;53.364;-1.488;2023-11-19T00:32:17;98972.13;;;17.38;46.94
29879;BME280;16752;53.364;-1.488;2023-11-19T00:35:02;98969.38;;;17.46;46.87
29879;BME280;16752;53.364;-1.488;2023-11-19T00:37:46;98965.66;;;17.55;47.17
29879;BME280;16752;53.364;-1.488;2023-11-19T00:40:31;98976.44;;;17.54;46.90
29879;BME280;16752;53.364;-1.488;2023-11-19T00:43:15;98971.03;;;17.47;47.78
29879;BME280;16752;53.364;-1.488;2023-11-19T00:46:00;98941.31;;;17.60;46.83
29879;BME280;16752;53.364;-1.488;2023-11-19T00:48:44;98966.38;;;17.87;46.68
29879;BME280;16752;53.364;-1.488;2023-11-19T00:51:31;98955.81;;;17.26;47.58
29879;BME280;16752;53.364;-1.488;2023-11-19T00:54:18;98958.88;;;17.53;46.99
29879;BME280;16752;53.364;-1.488;2023-11-19T00:57:02;98974.09;;;16.90;48.52
29879;BME280;16752;53.364;-1.488;2023-11-19T00:59:46;98965.28;;;17.21;47.55
29879;BME280;16752;53.364;-1.488;2023-11-19T01:02:31;98964.44;;;17.43;47.10
29879;BME280;16752;53.364;-1.488;2023-11-19T01:05:15;98948.00;;;18.00;45.95
29879;BME280;16752;53.364;-1.488;2023-11-19T01:07:59;98937.06;;;17.88;46.09
29879;BME280;16752;53.364;-1.488;2023-11-19T01:10:43;98933.13;;;17.99;45.59
29879;BME280;16752;53.364;-1.488;2023-11-19T01:13:27;98952.00;;;17.66;46.64
29879;BME280;16752;53.364;-1.488;2023-11-19T01:16:12;98943.88;;;17.07;47.60
29879;BME280;16752;53.364;-1.488;2023-11-19T01:18:57;98939.03;;;16.96;47.99
29879;BME280;16752;53.364;-1.488;2023-11-19T01:21:41;98937.59;;;17.69;46.78
29879;BME280;16752;53.364;-1.488;2023-11-19T01:24:25;98953.41;;;17.39;47.58
29879;BME280;16752;53.364;-1.488;2023-11-19T01:27:12;98927.25;;;17.59;47.62
29879;BME280;16752;53.364;-1.488;2023-11-19T01:29:56;98923.34;;;16.33;50.29
29879;BME280;16752;53.364;-1.488;2023-11-19T01:32:40;98930.72;;;17.60;47.56
29879;BME280;16752;53.364;-1.488;2023-11-19T01:35:24;98932.09;;;18.00;46.42
29879;BME280;16752;53.364;-1.488;2023-11-19T01:38:08;98927.16;;;17.30;47.60
29879;BME280;16752;53.364;-1.488;2023-11-19T01:40:57;98939.72;;;17.51;47.51
29879;BME280;16752;53.364;-1.488;2023-11-19T01:43:41;98940.88;;;18.30;45.69
29879;BME280;16752;53.364;-1.488;2023-11-19T01:46:25;98958.56;;;17.33;47.71
29879;BME280;16752;53.364;-1.488;2023-11-19T01:49:10;98936.91;;;18.41;45.16
29879;BME280;16752;53.364;-1.488;2023-11-19T01:51:57;98940.06;;;18.29;45.50
29879;BME280;16752;53.364;-1.488;2023-11-19T01:54:42;98924.28;;;17.54;46.87
29879;BME280;16752;53.364;-1.488;2023-11-19T01:57:26;98932.84;;;18.23;45.47
29879;BME280;16752;53.364;-1.488;2023-11-19T02:00:10;98936.78;;;18.13;45.79
29879;BME280;16752;53.364;-1.488;2023-11-19T02:02:56;98930.91;;;17.73;46.47
29879;BME280;16752;53.364;-1.488;2023-11-19T02:05:41;98946.25;;;18.66;44.72
29879;BME280;16752;53.364;-1.488;2023-11-19T02:08:24;98926.72;;;18.23;45.12
29879;BME280;16752;53.364;-1.488;2023-11-19T02:11:09;98952.00;;;18.70;44.84
29879;BME280;16752;53.364;-1.488;2023-11-19T02:13:57;98940.69;;;18.31;45.43
29879;BME280;16752;53.364;-1.488;2023-11-19T02:16:41;98927.41;;;18.46;44.51
29879;BME280;16752;53.364;-1.488;2023-11-19T02:19:25;98940.94;;;18.51;45.33
29879;BME280;16752;53.364;-1.488;2023-11-19T02:22:09;98938.03;;;17.73;47.00
29879;BME280;16752;53.364;-1.488;2023-11-19T02:24:59;98934.38;;;17.74;46.63
29879;BME280;16752;53.364;-1.488;2023-11-19T02:27:51;98938.94;;;18.39;45.84
29879;BME280;16752;53.364;-1.488;2023-11-19T02:30:39;98911.72;;;18.30;45.28
29879;BME280;16752;53.364;-1.488;2023-11-19T02:33:23;98934.50;;;18.24;45.86
29879;BME280;16752;53.364;-1.488;2023-11-19T02:36:08;98928.56;;;18.08;46.00
29879;BME280;16752;53.364;-1.488;2023-11-19T02:38:53;98940.94;;;18.37;45.62
29879;BME280;16752;53.364;-1.488;2023-11-19T02:41:36;98927.75;;;18.58;45.31
29879;BME280;16752;53.364;-1.488;2023-11-19T02:44:23;98928.50;;;18.67;44.69
29879;BME280;16752;53.364;-1.488;2023-11-19T02:47:07;98939.56;;;18.70;44.84
29879;BME280;16752;53.364;-1.488;2023-11-19T02:49:51;98933.22;;;18.06;45.92
29879;BME280;16752;53.364;-1.488;2023-11-19T02:52:37;98944.41;;;18.52;45.10
29879;BME280;16752;53.364;-1.488;2023-11-19T02:55:21;98916.84;;;18.31;45.23
29879;BME280;16752;53.364;-1.488;2023-11-19T02:58:07;98927.94;;;18.71;44.71
29879;BME280;16752;53.364;-1.488;2023-11-19T03:01:00;98942.19;;;18.05;46.38
29879;BME280;16752;53.364;-1.488;2023-11-19T03:03:54;98946.50;;;18.42;45.66
29879;BME280;16752;53.364;-1.488;2023-11-19T03:06:41;98922.41;;;18.87;44.26
29879;BME280;16752;53.364;-1.488;2023-11-19T03:09:26;98930.72;;;18.33;45.56
29879;BME280;16752;53.364;-1.488;2023-11-19T03:12:10;98924.09;;;17.79;46.43
29879;BME280;16752;53.364;-1.488;2023-11-19T03:14:54;98900.13;;;18.16;45.62
29879;BME280;16752;53.364;-1.488;2023-11-19T03:17:39;98882.88;;;17.76;46.74
29879;BME280;16752;53.364;-1.488;2023-11-19T03:20:24;98912.47;;;18.09;46.36
29879;BME280;16752;53.364;-1.488;2023-11-19T03:23:11;98910.47;;;17.96;46.71
29879;BME280;16752;53.364;-1.488;2023-11-19T03:25:55;98919.34;;;18.04;46.32
29879;BME280;16752;53.364;-1.488;2023-11-19T03:28:40;98907.44;;;17.99;46.21
29879;BME280;16752;53.364;-1.488;2023-11-19T03:31:24;98917.06;;;18.66;44.84
29879;BME280;16752;53.364;-1.488;2023-11-19T03:34:09;98906.53;;;17.92;46.74
29879;BME280;16752;53.364;-1.488;2023-11-19T03:36:53;98920.34;;;17.35;48.04
29879;BME280;16752;53.364;-1.488;2023-11-19T03:39:37;98895.00;;;18.00;46.00
29879;BME280;16752;53.364;-1.488;2023-11-19T03:42:20;98911.22;;;18.05;46.72
29879;BME280;16752;53.364;-1.488;2023-11-19T03:45:06;98905.63;;;17.70;47.89
29879;BME280;16752;53.364;-1.488;2023-11-19T03:47:52;98919.16;;;17.38;48.36
29879;BME280;16752;53.364;-1.488;2023-11-19T03:50:36;98901.50;;;18.12;46.66
29879;BME280;16752;53.364;-1.488;2023-11-19T03:53:20;98886.41;;;17.01;49.32
29879;BME280;16752;53.364;-1.488;2023-11-19T03:56:04;98897.38;;;16.90;49.56
29879;BME280;16752;53.364;-1.488;2023-11-19T03:58:48;98903.06;;;17.25;48.76
29879;BME280;16752;53.364;-1.488;2023-11-19T04:01:32;98877.84;;;17.96;47.02
29879;BME280;16752;53.364;-1.488;2023-11-19T04:04:16;98921.66;;;17.17;49.34
29879;BME280;16752;53.364;-1.488;2023-11-19T04:07:01;98901.97;;;17.86;47.20
29879;BME280;16752;53.364;-1.488;2023-11-19T04:09:46;98919.47;;;17.58;48.29
29879;BME280;16752;53.364;-1.488;2023-11-19T04:12:30;98927.44;;;17.35;48.38
29879;BME280;16752;53.364;-1.488;2023-11-19T04:15:14;98921.34;;;17.72;47.64
29879;BME280;16752;53.364;-1.488;2023-11-19T04:17:59;98920.88;;;17.68;47.65
29879;BME280;16752;53.364;-1.488;2023-11-19T04:20:42;98932.47;;;18.26;46.34
29879;BME280;16752;53.364;-1.488;2023-11-19T04:23:26;98913.41;;;17.87;47.08
29879;BME280;16752;53.364;-1.488;2023-11-19T04:26:10;98924.53;;;17.97;46.28
29879;BME280;16752;53.364;-1.488;2023-11-19T04:28:54;98923.34;;;18.29;46.25
29879;BME280;16752;53.364;-1.488;2023-11-19T04:31:38;98924.72;;;18.10;46.39
29879;BME280;16752;53.364;-1.488;2023-11-19T04:34:23;98927.09;;;18.05;46.56
29879;BME280;16752;53.364;-1.488;2023-11-19T04:37:07;98908.19;;;18.08;45.88
29879;BME280;16752;53.364;-1.488;2023-11-19T04:39:51;98925.91;;;17.78;46.97
29879;BME280;16752;53.364;-1.488;2023-11-19T04:42:35;98916.31;;;17.92;46.95
29879;BME280;16752;53.364;-1.488;2023-11-19T04:45:19;98906.44;;;18.15;45.98
29879;BME280;16752;53.364;-1.488;2023-11-19T04:48:03;98918.16;;;17.01;48.72
29879;BME280;16752;53.364;-1.488;2023-11-19T04:50:47;98889.63;;;17.93;46.26
29879;BME280;16752;53.364;-1.488;2023-11-19T04:53:32;98919.94;;;18.20;46.30
29879;BME280;16752;53.364;-1.488;2023-11-19T04:56:16;98909.31;;;18.35;45.46
29879;BME280;16752;53.364;-1.488;2023-11-19T04:59:03;98924.25;;;17.25;48.13
29879;BME280;16752;53.364;-1.488;2023-11-19T05:01:49;98923.03;;;17.65;48.08
29879;BME280;16752;53.364;-1.488;2023-11-19T05:04:33;98918.25;;;17.83;46.96
29879;BME280;16752;53.364;-1.488;2023-11-19T05:07:17;98908.53;;;17.61;47.38
29879;BME280;16752;53.364;-1.488;2023-11-19T05:10:01;98910.25;;;17.16;48.76
29879;BME280;16752;53.364;-1.488;2023-11-19T05:12:45;98911.69;;;16.81;49.47
29879;BME280;16752;53.364;-1.488;2023-11-19T05:15:29;98927.88;;;17.24;48.58
29879;BME280;16752;53.364;-1.488;2023-11-19T05:18:13;98930.19;;;16.81;49.21
29879;BME280;16752;53.364;-1.488;2023-11-19T05:20:57;98913.25;;;17.51;48.13
29879;BME280;16752;53.364;-1.488;2023-11-19T05:23:41;98917.56;;;17.29;48.90
29879;BME280;16752;53.364;-1.488;2023-11-19T05:26:26;98912.66;;;17.26;48.66
29879;BME280;16752;53.364;-1.488;2023-11-19T05:29:10;98887.47;;;17.82;46.86
29879;BME280;16752;53.364;-1.488;2023-11-19T05:31:54;98905.44;;;17.72;47.69
29879;BME280;16752;53.364;-1.488;2023-11-19T05:34:39;98928.03;;;16.54;50.38
29879;BME280;16752;53.364;-1.488;2023-11-19T05:37:23;98913.38;;;16.66;50.30
29879;BME280;16752;53.364;-1.488;2023-11-19T05:40:07;98905.63;;;16.95;49.51
29879;BME280;16752;53.364;-1.488;2023-11-19T05:42:58;98889.53;;;16.82;49.50
29879;BME280;16752;53.364;-1.488;2023-11-19T05:45:42;98892.38;;;17.70;47.45
29879;BME280;16752;53.364;-1.488;2023-11-19T05:48:26;98891.16;;;16.83;49.59
29879;BME280;16752;53.364;-1.488;2023-11-19T05:51:10;98892.22;;;17.87;47.01
29879;BME280;16752;53.364;-1.488;2023-11-19T05:53:54;98887.47;;;18.33;45.99
29879;BME280;16752;53.364;-1.488;2023-11-19T05:56:39;98884.72;;;18.41;46.06
29879;BME280;16752;53.364;-1.488;2023-11-19T05:59:23;98883.44;;;17.71;47.62
29879;BME280;16752;53.364;-1.488;2023-11-19T06:02:08;98885.00;;;17.28;48.50
29879;BME280;16752;53.364;-1.488;2023-11-19T06:04:52;98894.81;;;17.57;47.93
29879;BME280;16752;53.364;-1.488;2023-11-19T06:07:36;98885.09;;;18.02;46.84
29879;BME280;16752;53.364;-1.488;2023-11-19T06:10:21;98895.03;;;17.85;47.58
29879;BME280;16752;53.364;-1.488;2023-11-19T06:13:05;98895.88;;;17.86;47.60
29879;BME280;16752;53.364;-1.488;2023-11-19T06:15:49;98877.19;;;16.43;50.76
29879;BME280;16752;53.364;-1.488;2023-11-19T06:18:36;98892.63;;;17.61;48.57
29879;BME280;16752;53.364;-1.488;2023-11-19T06:21:20;98898.25;;;17.05;50.04
29879;BME280;16752;53.364;-1.488;2023-11-19T06:24:04;98909.00;;;16.27;52.08
29879;BME280;16752;53.364;-1.488;2023-11-19T06:26:49;98909.78;;;16.67;50.76
29879;BME280;16752;53.364;-1.488;2023-11-19T06:29:32;98919.06;;;17.08;50.22
29879;BME280;16752;53.364;-1.488;2023-11-19T06:32:16;98915.00;;;17.58;49.01
29879;BME280;16752;53.364;-1.488;2023-11-19T06:35:00;98917.72;;;17.50;49.59
29879;BME280;16752;53.364;-1.488;2023-11-19T06:37:44;98909.97;;;17.63;49.42
29879;BME280;16752;53.364;-1.488;2023-11-19T06:40:28;98888.88;;;16.18;52.35
29879;BME280;16752;53.364;-1.488;2023-11-19T06:43:13;98908.34;;;17.25;49.76
29879;BME280;16752;53.364;-1.488;2023-11-19T06:45:57;98901.22;;;17.78;48.52
29879;BME280;16752;53.364;-1.488;2023-11-19T06:48:41;98910.56;;;18.03;47.94
29879;BME280;16752;53.364;-1.488;2023-11-19T06:51:27;98912.13;;;17.07;50.11
29879;BME280;16752;53.364;-1.488;2023-11-19T06:54:13;98899.69;;;16.93;50.98
29879;BME280;16752;53.364;-1.488;2023-11-19T06:56:57;98913.66;;;18.07;48.59
29879;BME280;16752;53.364;-1.488;2023-11-19T06:59:44;98902.78;;;17.20;50.68
29879;BME280;16752;53.364;-1.488;2023-11-19T07:02:28;98918.22;;;17.98;48.84
29879;BME280;16752;53.364;-1.488;2023-11-19T07:05:12;98914.28;;;17.64;49.22
29879;BME280;16752;53.364;-1.488;2023-11-19T07:07:56;98903.88;;;17.78;49.27
29879;BME280;16752;53.364;-1.488;2023-11-19T07:10:40;98906.25;;;17.73;49.89
29879;BME280;16752;53.364;-1.488;2023-11-19T07:13:24;98910.72;;;17.57;50.32
29879;BME280;16752;53.364;-1.488;2023-11-19T07:16:14;98884.88;;;17.59;49.42
29879;BME280;16752;53.364;-1.488;2023-11-19T07:18:58;98910.53;;;17.59;50.35
29879;BME280;16752;53.364;-1.488;2023-11-19T07:21:43;98918.34;;;17.37;50.67
29879;BME280;16752;53.364;-1.488;2023-11-19T07:24:30;98924.78;;;16.97;51.69
29879;BME280;16752;53.364;-1.488;2023-11-19T07:27:15;98920.88;;;17.68;50.02
29879;BME280;16752;53.364;-1.488;2023-11-19T07:29:59;98904.97;;;17.98;49.70
29879;BME280;16752;53.364;-1.488;2023-11-19T07:32:43;98912.22;;;16.99;51.76
29879;BME280;16752;53.364;-1.488;2023-11-19T07:35:27;98902.16;;;16.64;52.83
29879;BME280;16752;53.364;-1.488;2023-11-19T07:38:14;98904.53;;;17.27;51.17
29879;BME280;16752;53.364;-1.488;2023-11-19T07:40:58;98898.63;;;17.55;50.14
29879;BME280;16752;53.364;-1.488;2023-11-19T07:43:43;98884.84;;;17.45;50.34
29879;BME280;16752;53.364;-1.488;2023-11-19T07:46:28;98901.28;;;17.40;50.61
29879;BME280;16752;53.364;-1.488;2023-11-19T07:49:12;98895.69;;;16.97;51.01
29879;BME280;16752;53.364;-1.488;2023-11-19T07:51:56;98908.28;;;16.72;52.05
29879;BME280;16752;53.364;-1.488;2023-11-19T07:54:40;98893.16;;;17.41;49.70
29879;BME280;16752;53.364;-1.488;2023-11-19T07:57:24;98915.66;;;17.23;51.06
29879;BME280;16752;53.364;-1.488;2023-11-19T08:00:09;98904.97;;;17.31;50.46
29879;BME280;16752;53.364;-1.488;2023-11-19T08:02:56;98905.75;;;17.39;50.78
29879;BME280;16752;53.364;-1.488;2023-11-19T08:05:40;98903.78;;;17.19;51.51
29879;BME280;16752;53.364;-1.488;2023-11-19T08:08:24;98899.06;;;17.81;50.25
29879;BME280;16752;53.364;-1.488;2023-11-19T08:11:08;98900.97;;;17.35;51.56
29879;BME280;16752;53.364;-1.488;2023-11-19T08:13:52;98917.69;;;17.88;50.78
29879;BME280;16752;53.364;-1.488;2023-11-19T08:16:36;98917.88;;;17.71;50.88
29879;BME280;16752;53.364;-1.488;2023-11-19T08:19:21;98913.25;;;17.13;51.67
29879;BME280;16752;53.364;-1.488;2023-11-19T08:22:05;98924.16;;;17.70;50.56
29879;BME280;16752;53.364;-1.488;2023-11-19T08:24:49;98915.50;;;18.06;49.12
29879;BME280;16752;53.364;-1.488;2023-11-19T08:27:33;98907.81;;;18.26;48.54
29879;BME280;16752;53.364;-1.488;2023-11-19T08:30:17;98897.19;;;17.67;49.16
29879;BME280;16752;53.364;-1.488;2023-11-19T08:33:01;98922.13;;;17.20;51.26
29879;BME280;16752;53.364;-1.488;2023-11-19T08:35:46;98916.59;;;17.67;50.17
29879;BME280;16752;53.364;-1.488;2023-11-19T08:38:30;98912.56;;;17.71;50.45
29879;BME280;16752;53.364;-1.488;2023-11-19T08:41:15;98926.84;;;16.87;51.79
29879;BME280;16752;53.364;-1.488;2023-11-19T08:44:01;98923.22;;;17.63;50.73
29879;BME280;16752;53.364;-1.488;2023-11-19T08:46:49;98907.06;;;16.52;52.82
29879;BME280;16752;53.364;-1.488;2023-11-19T08:49:33;98898.16;;;16.99;51.50
29879;BME280;16752;53.364;-1.488;2023-11-19T08:52:16;98927.09;;;18.05;49.88
29879;BME280;16752;53.364;-1.488;2023-11-19T08:55:01;98930.81;;;17.29;50.76
29879;BME280;16752;53.364;-1.488;2023-11-19T08:57:46;98924.66;;;18.04;49.21
29879;BME280;16752;53.364;-1.488;2023-11-19T09:00:30;98931.63;;;18.41;48.76
29879;BME280;16752;53.364;-1.488;2023-11-19T09:03:16;98934.38;;;18.18;48.44
29879;BME280;16752;53.364;-1.488;2023-11-19T09:06:00;98923.06;;;18.60;47.91
29879;BME280;16752;53.364;-1.488;2023-11-19T09:08:44;98930.91;;;18.17;48.49
29879;BME280;16752;53.364;-1.488;2023-11-19T09:11:29;98933.13;;;17.69;49.80
29879;BME280;16752;53.364;-1.488;2023-11-19T09:14:14;98916.91;;;18.38;48.38
29879;BME280;16752;53.364;-1.488;2023-11-19T09:16:58;98930.63;;;17.30;49.83
29879;BME280;16752;53.364;-1.488;2023-11-19T09:19:42;98944.28;;;17.80;48.93
29879;BME280;16752;53.364;-1.488;2023-11-19T09:22:25;98922.44;;;17.78;49.30
29879;BME280;16752;53.364;-1.488;2023-11-19T09:25:09;98916.28;;;17.62;49.30
29879;BME280;16752;53.364;-1.488;2023-11-19T09:27:53;98928.03;;;17.83;49.69
29879;BME280;16752;53.364;-1.488;2023-11-19T09:30:37;98935.88;;;18.06;49.09
29879;BME280;16752;53.364;-1.488;2023-11-19T09:33:21;98928.97;;;17.67;50.09
29879;BME280;16752;53.364;-1.488;2023-11-19T09:36:05;98916.97;;;17.79;49.71
29879;BME280;16752;53.364;-1.488;2023-11-19T09:38:50;98904.00;;;17.84;50.12
29879;BME280;16752;53.364;-1.488;2023-11-19T09:41:34;98914.53;;;17.55;49.89
29879;BME280;16752;53.364;-1.488;2023-11-19T09:44:18;98894.81;;;18.31;48.45
29879;BME280;16752;53.364;-1.488;2023-11-19T09:47:03;98922.06;;;18.61;48.30
29879;BME280;16752;53.364;-1.488;2023-11-19T09:49:49;98925.03;;;18.51;48.26
29879;BME280;16752;53.364;-1.488;2023-11-19T09:52:33;98897.41;;;17.95;49.94
29879;BME280;16752;53.364;-1.488;2023-11-19T09:55:17;98919.28;;;18.48;49.11
29879;BME280;16752;53.364;-1.488;2023-11-19T09:58:02;98926.81;;;18.15;50.42
29879;BME280;16752;53.364;-1.488;2023-11-19T10:00:46;98918.88;;;18.15;50.84
29879;BME280;16752;53.364;-1.488;2023-11-19T10:03:33;98905.31;;;18.60;49.71
29879;BME280;16752;53.364;-1.488;2023-11-19T10:06:27;98883.84;;;18.70;49.49
29879;BME280;16752;53.364;-1.488;2023-11-19T10:09:12;98901.81;;;18.02;51.34
29879;BME280;16752;53.364;-1.488;2023-11-19T10:11:58;98905.84;;;18.35;51.88
29879;BME280;16752;53.364;-1.488;2023-11-19T10:14:42;98886.91;;;18.38;51.67
29879;BME280;16752;53.364;-1.488;2023-11-19T10:17:34;98899.28;;;18.30;52.02
29879;BME280;16752;53.364;-1.488;2023-11-19T10:20:18;98897.16;;;18.41;52.05
29879;BME280;16752;53.364;-1.488;2023-11-19T10:23:02;98899.81;;;17.52;54.63
29879;BME280;16752;53.364;-1.488;2023-11-19T10:25:46;98887.91;;;17.71;54.35
29879;BME280;16752;53.364;-1.488;2023-11-19T10:28:40;98913.56;;;17.70;54.19
29879;BME280;16752;53.364;-1.488;2023-11-19T10:31:29;98892.25;;;17.49;54.72
29879;BME280;16752;53.364;-1.488;2023-11-19T10:34:24;98907.34;;;18.22;53.40
29879;BME280;16752;53.364;-1.488;2023-11-19T10:37:27;98890.47;;;17.94;53.82
29879;BME280;16752;53.364;-1.488;2023-11-19T10:40:11;98896.47;;;17.58;55.33
29879;BME280;16752;53.364;-1.488;2023-11-19T10:43:02;98896.13;;;17.76;54.89
29879;BME280;16752;53.364;-1.488;2023-11-19T10:45:46;98887.16;;;17.77;54.69
29879;BME280;16752;53.364;-1.488;2023-11-19T10:48:30;98889.91;;;17.98;54.30
29879;BME280;16752;53.364;-1.488;2023-11-19T10:51:19;98866.09;;;18.35;53.51
29879;BME280;16752;53.364;-1.488;2023-11-19T10:54:08;98877.69;;;18.33;54.07
29879;BME280;16752;53.364;-1.488;2023-11-19T10:56:59;98876.47;;;18.66;52.72
29879;BME280;16752;53.364;-1.488;2023-11-19T10:59:45;98871.47;;;18.05;54.31
29879;BME280;16752;53.364;-1.488;2023-11-19T11:02:30;98869.88;;;17.66;55.22
29879;BME280;16752;53.364;-1.488;2023-11-19T11:05:21;98864.25;;;18.35;53.94
29879;BME280;16752;53.364;-1.488;2023-11-19T11:08:06;98873.34;;;17.52;55.64
29879;BME280;16752;53.364;-1.488;2023-11-19T11:10:54;98858.09;;;17.54;55.82
29879;BME280;16752;53.364;-1.488;2023-11-19T11:13:41;98863.81;;;18.31;53.63
29879;BME280;16752;53.364;-1.488;2023-11-19T11:16:26;98865.97;;;17.62;55.90
29879;BME280;16752;53.364;-1.488;2023-11-19T11:19:11;98864.97;;;17.93;55.07
29879;BME280;16752;53.364;-1.488;2023-11-19T11:21:57;98852.91;;;17.76;55.10
29879;BME280;16752;53.364;-1.488;2023-11-19T11:25:08;98867.69;;;18.14;54.33
29879;BME280;16752;53.364;-1.488;2023-11-19T11:28:08;98848.00;;;17.73;55.06
29879;BME280;16752;53.364;-1.488;2023-11-19T11:36:58;98851.91;;;18.06;54.30
29879;BME280;16752;53.364;-1.488;2023-11-19T11:39:47;98850.91;;;17.78;54.92
29879;BME280;16752;53.364;-1.488;2023-11-19T11:42:34;98842.88;;;18.00;54.35
29879;BME280;16752;53.364;-1.488;2023-11-19T11:45:18;98843.06;;;18.20;54.12
29879;BME280;16752;53.364;-1.488;2023-11-19T11:48:07;98828.19;;;17.83;54.79
29879;BME280;16752;53.364;-1.488;2023-11-19T11:50:53;98836.84;;;17.92;55.34
29879;BME280;16752;53.364;-1.488;2023-11-19T11:53:37;98817.25;;;18.08;54.98
29879;BME280;16752;53.364;-1.488;2023-11-19T11:56:21;98822.78;;;17.77;55.18
29879;BME280;16752;53.364;-1.488;2023-11-19T11:59:25;98833.94;;;17.57;56.86
29879;BME280;16752;53.364;-1.488;2023-11-19T12:02:11;98816.53;;;18.56;54.11
29879;BME280;16752;53.364;-1.488;2023-11-19T12:04:55;98812.16;;;18.06;55.45
29879;BME280;16752;53.364;-1.488;2023-11-19T12:07:40;98829.19;;;17.67;56.37
29879;BME280;16752;53.364;-1.488;2023-11-19T12:10:29;98811.56;;;18.25;55.28
29879;BME280;16752;53.364;-1.488;2023-11-19T12:13:17;98812.44;;;17.96;55.99
29879;BME280;16752;53.364;-1.488;2023-11-19T12:18:47;98803.19;;;18.07;55.30
29879;BME280;16752;53.364;-1.488;2023-11-19T12:21:31;98808.19;;;18.38;54.51
29879;BME280;16752;53.364;-1.488;2023-11-19T12:24:16;98807.94;;;18.33;55.63
29879;BME280;16752;53.364;-1.488;2023-11-19T12:27:00;98800.69;;;18.42;54.66
29879;BME280;16752;53.364;-1.488;2023-11-19T12:29:44;98796.53;;;18.54;54.40
29879;BME280;16752;53.364;-1.488;2023-11-19T12:32:37;98809.41;;;19.00;53.33
29879;BME280;16752;53.364;-1.488;2023-11-19T12:35:21;98787.03;;;19.09;53.37
29879;BME280;16752;53.364;-1.488;2023-11-19T12:38:05;98799.56;;;18.93;53.59
29879;BME280;16752;53.364;-1.488;2023-11-19T12:43:47;98794.00;;;17.74;56.84
29879;BME280;16752;53.364;-1.488;2023-11-19T12:46:31;98794.31;;;18.57;54.96
29879;BME280;16752;53.364;-1.488;2023-11-19T12:49:15;98745.56;;;18.80;53.49
29879;BME280;16752;53.364;-1.488;2023-11-19T12:51:59;98782.84;;;19.00;54.08
29879;BME280;16752;53.364;-1.488;2023-11-19T12:54:43;98801.19;;;18.67;54.74
29879;BME280;16752;53.364;-1.488;2023-11-19T13:00:23;98770.25;;;18.16;56.15
29879;BME280;16752;53.364;-1.488;2023-11-19T13:03:08;98793.25;;;17.94;57.93
29879;BME280;16752;53.364;-1.488;2023-11-19T13:06:03;98770.59;;;18.28;56.62
29879;BME280;16752;53.364;-1.488;2023-11-19T13:08:49;98790.22;;;18.55;56.02
29879;BME280;16752;53.364;-1.488;2023-11-19T13:11:35;98787.69;;;18.47;56.45
29879;BME280;16752;53.364;-1.488;2023-11-19T13:14:20;98760.94;;;18.63;55.56
29879;BME280;16752;53.364;-1.488;2023-11-19T13:17:04;98789.19;;;18.56;56.29
29879;BME280;16752;53.364;-1.488;2023-11-19T13:19:49;98799.16;;;18.97;55.35
29879;BME280;16752;53.364;-1.488;2023-11-19T13:22:34;98798.75;;;19.28;54.42
29879;BME280;16752;53.364;-1.488;2023-11-19T13:25:18;98776.81;;;19.47;53.81
29879;BME280;16752;53.364;-1.488;2023-11-19T13:28:02;98790.84;;;18.78;55.64
29879;BME280;16752;53.364;-1.488;2023-11-19T13:30:47;98787.44;;;18.63;56.00
29879;BME280;16752;53.364;-1.488;2023-11-19T13:33:30;98804.81;;;19.77;53.56
29879;BME280;16752;53.364;-1.488;2023-11-19T13:36:14;98802.50;;;19.33;54.49
29879;BME280;16752;53.364;-1.488;2023-11-19T13:38:58;98786.31;;;19.28;54.65
29879;BME280;16752;53.364;-1.488;2023-11-19T13:41:43;98788.59;;;19.66;53.28
29879;BME280;16752;53.364;-1.488;2023-11-19T13:44:27;98793.00;;;19.93;52.59
29879;BME280;16752;53.364;-1.488;2023-11-19T13:47:11;98781.75;;;19.91;53.04
29879;BME280;16752;53.364;-1.488;2023-11-19T13:49:55;98787.84;;;19.09;55.13
29879;BME280;16752;53.364;-1.488;2023-11-19T13:52:40;98793.06;;;18.53;56.83
29879;BME280;16752;53.364;-1.488;2023-11-19T13:55:25;98793.28;;;19.01;55.93
29879;BME280;16752;53.364;-1.488;2023-11-19T13:58:10;98781.00;;;19.28;54.87
29879;BME280;16752;53.364;-1.488;2023-11-19T14:00:54;98790.84;;;18.36;56.42
29879;BME280;16752;53.364;-1.488;2023-11-19T14:03:38;98795.34;;;19.34;54.77
29879;BME280;16752;53.364;-1.488;2023-11-19T14:06:22;98790.19;;;18.98;56.00
29879;BME280;16752;53.364;-1.488;2023-11-19T14:09:07;98784.50;;;19.70;53.85
29879;BME280;16752;53.364;-1.488;2023-11-19T14:11:50;98788.56;;;19.59;53.82
29879;BME280;16752;53.364;-1.488;2023-11-19T14:14:35;98799.63;;;19.35;55.03
29879;BME280;16752;53.364;-1.488;2023-11-19T14:17:19;98772.78;;;18.88;55.91
29879;BME280;16752;53.364;-1.488;2023-11-19T14:20:03;98791.53;;;19.15;55.17
29879;BME280;16752;53.364;-1.488;2023-11-19T14:22:57;98759.63;;;18.80;56.04
29879;BME280;16752;53.364;-1.488;2023-11-19T14:25:40;98794.22;;;18.66;56.63
29879;BME280;16752;53.364;-1.488;2023-11-19T14:28:24;98787.94;;;18.52;56.83
29879;BME280;16752;53.364;-1.488;2023-11-19T14:31:09;98773.28;;;18.77;56.33
29879;BME280;16752;53.364;-1.488;2023-11-19T14:33:53;98788.06;;;18.22;58.31
29879;BME280;16752;53.364;-1.488;2023-11-19T14:36:37;98788.31;;;18.06;57.09
29879;BME280;16752;53.364;-1.488;2023-11-19T14:39:21;98795.22;;;19.14;55.33